Time;durP1;ratioP1;P1;durP2;ratioP2;P2;SDS_P1;SDS_P2;PMS_P1;PMS_P2;Temp;Humidity;BMP_temperature;BMP_pressure;BME280_temperature;BME280_humidity;BME280_pressure;Samples;Min_cycle;Max_cycle;Signal;HPM_P1;HPM_P2
2022/08/14 00:11:37;;;;;;;17.33;13.00;;;;;;;19.32;81.19;99992.75;30035367;29;96695;-60
2022/08/14 00:26:38;;;;;;;18.35;13.05;;;;;;;19.47;81.32;99967.19;30034168;29;97755;-61
2022/08/14 00:41:38;;;;;;;16.48;13.50;;;;;;;19.57;81.39;99964.69;30032241;29;98678;-63
2022/08/14 00:56:39;;;;;;;18.00;13.27;;;;;;;19.65;81.48;99952.72;30030643;29;97338;-63
2022/08/14 01:11:39;;;;;;;18.30;14.60;;;;;;;19.68;81.17;99942.25;30030193;29;97220;-63
2022/08/14 01:26:42;;;;;;;17.42;13.65;;;;;;;19.70;81.43;99942.84;30028747;29;96758;-63
2022/08/14 01:41:47;;;;;;;17.40;13.47;;;;;;;19.75;81.41;99945.66;30026226;29;96796;-64
2022/08/14 01:56:55;;;;;;;17.70;12.47;;;;;;;19.78;80.95;99937.06;30026392;29;96754;-61
2022/08/14 02:11:56;;;;;;;13.40;11.70;;;;;;;19.69;80.89;99938.47;30024999;29;96924;-61
2022/08/14 02:27:01;;;;;;;14.68;10.85;;;;;;;19.60;80.71;99924.53;30023367;29;96826;-63
2022/08/14 02:42:02;;;;;;;15.53;10.73;;;;;;;19.49;80.73;99908.31;30021914;29;97244;-61
2022/08/14 02:57:06;;;;;;;14.32;11.30;;;;;;;19.14;80.53;99907.25;30021560;29;97192;-64
2022/08/14 03:12:06;;;;;;;14.40;12.47;;;;;;;18.90;80.88;99907.25;30019917;29;97354;-61
2022/08/14 03:27:07;;;;;;;17.23;12.82;;;;;;;18.73;81.38;99896.25;30033271;29;97425;-64
2022/08/14 03:42:07;;;;;;;14.80;12.27;;;;;;;18.72;81.79;99883.00;30036950;29;97398;-64
2022/08/14 03:57:07;;;;;;;13.70;11.48;;;;;;;19.02;81.88;99876.75;30036216;29;96693;-63
2022/08/14 04:12:08;;;;;;;18.00;12.98;;;;;;;19.00;81.32;99868.03;30033932;29;96828;-62
2022/08/14 04:27:10;;;;;;;14.60;11.65;;;;;;;19.01;81.71;99867.00;30033713;29;97247;-61
2022/08/14 04:57:30;;;;;;;14.30;10.80;;;;;;;19.71;81.12;99871.53;30029885;29;97153;-61
2022/08/14 05:12:30;;;;;;;11.57;9.85;;;;;;;20.15;80.25;99854.00;30028751;29;97020;-61
2022/08/14 05:27:30;;;;;;;13.02;10.52;;;;;;;20.63;79.60;99853.50;30026607;29;97049;-60
2022/08/14 05:42:31;;;;;;;10.80;9.17;;;;;;;20.95;78.69;99855.69;30023175;29;97493;-63
2022/08/14 05:57:31;;;;;;;11.13;10.00;;;;;;;21.04;77.04;99852.56;30022695;29;99070;-63
2022/08/14 06:12:32;;;;;;;12.67;10.37;;;;;;;21.47;77.42;99832.84;30022728;29;96800;-61
2022/08/14 06:27:39;;;;;;;12.00;9.70;;;;;;;22.35;75.35;99833.88;30021858;29;96695;-60
2022/08/14 06:42:41;;;;;;;14.70;10.57;;;;;;;22.09;74.07;99819.19;30020405;29;97035;-63
2022/08/14 06:57:44;;;;;;;13.43;11.37;;;;;;;21.88;74.29;99807.34;30027421;29;97266;-63
2022/08/14 07:12:45;;;;;;;13.37;11.37;;;;;;;21.76;73.68;99813.72;30038967;29;96638;-63
2022/08/14 07:27:45;;;;;;;13.35;11.45;;;;;;;22.08;73.80;99817.59;30037992;29;96549;-61
2022/08/14 07:42:46;;;;;;;12.43;11.13;;;;;;;22.39;73.05;99804.31;30035475;29;96703;-60
2022/08/14 07:57:47;;;;;;;11.77;10.50;;;;;;;23.09;71.72;99798.88;30034915;29;96918;-64
2022/08/14 08:12:48;;;;;;;12.07;9.60;;;;;;;23.86;69.47;99787.50;30034149;29;96615;-62
2022/08/14 08:28:00;;;;;;;10.10;9.00;;;;;;;26.99;65.99;99793.72;30032800;29;97411;-65
2022/08/14 08:43:03;;;;;;;11.70;8.87;;;;;;;28.39;60.57;99764.53;30029884;29;96820;-63
2022/08/14 08:58:09;;;;;;;9.30;7.37;;;;;;;30.32;54.94;99760.03;30028908;29;96954;-63
2022/08/14 09:13:11;;;;;;;8.73;7.83;;;;;;;28.41;54.13;99743.94;30028241;29;97489;-63
2022/08/14 09:28:13;;;;;;;10.60;9.27;;;;;;;27.08;55.74;99743.88;30027427;29;96867;-65
2022/08/14 09:43:39;;;;;;;11.67;9.80;;;;;;;27.52;56.80;99723.69;30024658;29;96657;-63
2022/08/14 09:58:42;;;;;;;11.30;10.10;;;;;;;27.21;56.70;99710.38;30025284;29;97384;-66
2022/08/14 10:13:43;;;;;;;11.03;10.03;;;;;;;26.64;58.04;99716.47;30023509;29;97095;-62
2022/08/14 10:28:46;;;;;;;11.65;8.85;;;;;;;26.26;59.23;99721.75;30019589;29;96714;-62
2022/08/14 10:44:07;;;;;;;9.93;7.80;;;;;;;27.51;59.56;99709.16;30019308;29;97600;-66
2022/08/14 10:59:08;;;;;;;8.77;6.40;;;;;;;31.23;51.94;99693.81;30019363;29;97715;-62
2022/08/14 11:14:09;;;;;;;7.90;7.03;;;;;;;30.01;50.17;99692.13;30019332;29;96924;-62
2022/08/14 11:29:10;;;;;;;24.30;9.10;;;;;;;27.46;53.56;99705.69;30017406;29;97013;-62
2022/08/14 11:44:29;;;;;;;15.95;9.65;;;;;;;25.29;58.89;99702.16;30613448;23;98960;-62
2022/08/14 11:59:32;;;;;;;9.43;8.00;;;;;;;24.41;61.95;99689.88;29919350;29;97420;-64
2022/08/14 12:14:32;;;;;;;10.27;9.13;;;;;;;24.22;63.83;99679.56;29918843;29;97485;-64
2022/08/14 12:29:32;;;;;;;10.50;8.18;;;;;;;24.97;64.13;99662.53;29916983;29;109687;-59
2022/08/14 12:44:38;;;;;;;8.07;6.80;;;;;;;27.34;63.67;99644.03;29915527;29;96917;-60
2022/08/14 12:59:38;;;;;;;7.17;5.07;;;;;;;29.54;55.19;99644.94;29914378;29;96639;-61
2022/08/14 13:14:45;;;;;;;11.73;7.95;;;;;;;25.72;58.56;99638.13;29913636;29;97340;-60
2022/08/14 13:29:46;;;;;;;12.03;9.37;;;;;;;24.66;61.88;99621.78;29912611;29;96711;-64
2022/08/14 13:44:52;;;;;;;10.40;7.60;;;;;;;24.60;62.85;99600.25;29910125;29;97082;-61
2022/08/14 13:59:54;;;;;;;10.60;7.17;;;;;;;24.75;63.15;99588.53;29910018;29;98060;-63
2022/08/14 14:14:55;;;;;;;9.80;7.10;;;;;;;25.18;63.77;99570.56;29907507;29;96700;-65
2022/08/14 14:29:58;;;;;;;8.70;7.32;;;;;;;26.35;62.60;99556.22;29907576;29;96763;-60
2022/08/14 14:45:19;;;;;;;9.10;7.27;;;;;;;27.29;60.77;99537.44;29905383;29;96785;-61
2022/08/14 15:00:19;;;;;;;11.47;8.10;;;;;;;26.11;60.55;99515.25;29904430;29;97569;-60
2022/08/14 15:15:20;;;;;;;11.82;7.78;;;;;;;25.22;62.64;99532.66;29907666;29;96797;-64
2022/08/14 15:30:20;;;;;;;13.68;8.65;;;;;;;24.86;64.06;99521.19;29924163;29;96646;-65
2022/08/14 15:45:21;;;;;;;10.05;6.93;;;;;;;24.91;64.02;99494.72;29919692;29;99126;-61
2022/08/14 16:15:40;;;;;;;7.93;6.80;;;;;;;24.58;65.08;99475.28;29918177;29;96991;-61
2022/08/14 16:30:45;;;;;;;10.13;5.93;;;;;;;24.55;65.01;99486.75;29917420;29;96746;-61
2022/08/14 16:45:47;;;;;;;5.70;4.43;;;;;;;24.40;64.14;99479.47;29913980;29;96994;-60
2022/08/14 17:00:48;;;;;;;7.97;5.57;;;;;;;24.14;64.28;99481.50;29914152;29;97171;-64
2022/08/14 17:16:13;;;;;;;6.07;5.35;;;;;;;23.71;64.66;99495.44;29913785;29;96769;-63
2022/08/14 17:31:14;;;;;;;8.43;4.90;;;;;;;23.37;65.46;99495.19;29912544;29;97552;-62
2022/08/14 17:46:39;;;;;;;6.23;5.20;;;;;;;22.94;66.58;99488.06;29908344;29;98010;-65
2022/08/14 18:01:40;;;;;;;8.83;5.80;;;;;;;22.57;67.86;99477.41;29908370;29;96639;-64
2022/08/14 18:16:43;;;;;;;7.90;5.80;;;;;;;22.13;69.11;99465.03;29907357;29;96837;-58
2022/08/14 18:31:44;;;;;;;9.67;6.80;;;;;;;21.85;70.49;99474.38;29906576;29;96762;-62
2022/08/14 18:47:09;;;;;;;10.15;7.00;;;;;;;21.48;71.47;99479.50;29904645;29;96701;-60
2022/08/14 19:02:27;;;;;;;10.83;7.63;;;;;;;21.26;73.06;99498.56;29903667;29;96728;-65
2022/08/14 19:17:44;;;;;;;10.17;7.70;;;;;;;21.06;73.86;99498.41;29902149;29;96773;-60
2022/08/14 19:32:45;;;;;;;10.83;7.03;;;;;;;20.79;74.62;99496.53;29898575;29;96699;-63
2022/08/14 19:47:45;;;;;;;11.03;6.90;;;;;;;20.58;75.42;99482.72;29898016;29;96747;-63
2022/08/14 20:02:48;;;;;;;9.37;8.20;;;;;;;20.50;76.13;99485.88;29904586;29;97632;-60
2022/08/14 20:17:50;;;;;;;10.67;7.70;;;;;;;20.41;76.96;99482.00;29917276;29;96832;-61
2022/08/14 20:32:56;;;;;;;10.40;7.30;;;;;;;20.36;77.14;99473.81;29916041;29;97178;-58
2022/08/14 20:48:01;;;;;;;14.77;10.50;;;;;;;20.06;77.46;99448.84;29915143;29;99815;-63
2022/08/14 21:03:25;;;;;;;12.70;8.73;;;;;;;19.78;78.35;99447.91;29915512;29;96703;-62
2022/08/14 21:18:28;;;;;;;12.07;8.73;;;;;;;19.55;79.13;99421.94;29912131;29;98544;-66
2022/08/14 21:33:30;;;;;;;14.07;8.93;;;;;;;19.42;79.78;99435.78;29913066;29;97234;-63
2022/08/14 21:48:31;;;;;;;11.03;7.93;;;;;;;19.17;80.03;99425.41;29911150;29;97621;-63
2022/08/14 22:03:32;;;;;;;10.90;7.70;;;;;;;19.04;80.52;99426.53;29911065;29;96782;-59
2022/08/14 22:18:32;;;;;;;13.00;8.40;;;;;;;18.96;81.05;99432.34;29909714;29;96765;-62
2022/08/14 22:33:32;;;;;;;12.73;9.07;;;;;;;18.83;81.47;99428.84;29908194;29;96657;-62
2022/08/14 22:48:33;;;;;;;16.08;9.43;;;;;;;18.89;81.79;99429.78;29907054;29;97345;-60
2022/08/14 23:03:33;;;;;;;12.88;8.75;;;;;;;19.08;82.17;99406.09;29906927;29;96779;-60
2022/08/14 23:18:36;;;;;;;12.52;9.23;;;;;;;18.92;82.09;99380.75;29905166;29;97399;-63
2022/08/14 23:33:38;;;;;;;13.50;10.13;;;;;;;18.74;82.21;99365.56;29904691;29;97365;-63
2022/08/14 23:48:39;;;;;;;15.77;9.93;;;;;;;18.63;82.52;99383.47;29921870;29;97059;-62
